Time;durP1;ratioP1;P1;durP2;ratioP2;P2;SDS_P1;SDS_P2;PMS_P1;PMS_P2;Temp;Humidity;BMP_temperature;BMP_pressure;BME280_temperature;BME280_humidity;BME280_pressure;Samples;Min_cycle;Max_cycle;Signal;HPM_P1;HPM_P2
2023/12/24 00:02:04;;;;;;;30.67;29.10;;;;;;;;;;5033311;28;20029;-54
2023/12/24 00:04:29;;;;;;;32.00;29.90;;;;;;;;;;5033334;28;20063;-52
2023/12/24 00:06:55;;;;;;;30.88;29.27;;;;;;;;;;5030824;28;20806;-51
2023/12/24 00:09:20;;;;;;;29.92;28.38;;;;;;;;;;5028871;28;20036;-54
2023/12/24 00:11:45;;;;;;;32.08;30.42;;;;;;;;;;5028709;28;20122;-52
2023/12/24 00:14:11;;;;;;;32.80;29.55;;;;;;;;;;5029811;28;20030;-55
2023/12/24 00:16:39;;;;;;;32.38;30.70;;;;;;;;;;5032776;28;20493;-54
2023/12/24 00:19:05;;;;;;;31.33;29.73;;;;;;;;;;5033393;28;20080;-54
2023/12/24 00:21:30;;;;;;;32.22;30.52;;;;;;;;;;5030537;28;20036;-55
2023/12/24 00:23:55;;;;;;;32.78;31.10;;;;;;;;;;5026650;28;20597;-55
2023/12/24 00:26:21;;;;;;;32.60;30.92;;;;;;;;;;5031341;28;20471;-54
2023/12/24 00:28:47;;;;;;;31.65;29.95;;;;;;;;;;5030053;28;20120;-53
2023/12/24 00:31:13;;;;;;;32.10;30.42;;;;;;;;;;5026809;28;20033;-54
2023/12/24 00:33:38;;;;;;;31.98;30.33;;;;;;;;;;5030535;28;20075;-55
2023/12/24 00:36:04;;;;;;;31.88;30.17;;;;;;;;;;5029992;28;20033;-52
2023/12/24 00:38:29;;;;;;;32.05;30.38;;;;;;;;;;5025944;28;20032;-54
2023/12/24 00:40:54;;;;;;;34.30;32.50;;;;;;;;;;5030190;28;20033;-54
2023/12/24 00:43:19;;;;;;;32.53;30.83;;;;;;;;;;5028063;28;20041;-54
2023/12/24 00:45:45;;;;;;;32.42;30.73;;;;;;;;;;5029881;28;20025;-55
2023/12/24 00:48:10;;;;;;;30.80;29.20;;;;;;;;;;5031154;28;20107;-54
2023/12/24 00:50:36;;;;;;;31.83;30.13;;;;;;;;;;5028129;28;20030;-54
2023/12/24 00:53:01;;;;;;;31.33;29.70;;;;;;;;;;5029182;28;20025;-54
2023/12/24 00:55:26;;;;;;;31.95;30.27;;;;;;;;;;5032509;28;20034;-54
2023/12/24 00:57:52;;;;;;;30.90;29.20;;;;;;;;;;5033494;28;20040;-55
2023/12/24 01:00:17;;;;;;;31.17;29.58;;;;;;;;;;5030219;28;20032;-54
2023/12/24 01:02:42;;;;;;;31.05;29.45;;;;;;;;;;5030898;28;20089;-52
2023/12/24 01:05:08;;;;;;;31.40;29.73;;;;;;;;;;5031956;28;20120;-53
2023/12/24 01:07:33;;;;;;;30.88;29.27;;;;;;;;;;5030201;28;20120;-53
2023/12/24 01:09:58;;;;;;;31.70;30.05;;;;;;;;;;5040078;28;20470;-56
2023/12/24 01:12:24;;;;;;;31.80;30.20;;;;;;;;;;5036431;28;20061;-53
2023/12/24 01:14:49;;;;;;;32.00;30.33;;;;;;;;;;5028871;28;20102;-55
2023/12/24 01:17:14;;;;;;;33.08;31.33;;;;;;;;;;5029046;28;20045;-53
2023/12/24 01:19:40;;;;;;;31.10;29.50;;;;;;;;;;5028325;28;20029;-53
2023/12/24 01:22:06;;;;;;;31.92;30.27;;;;;;;;;;5028838;28;20033;-54
2023/12/24 01:24:31;;;;;;;32.05;30.40;;;;;;;;;;5034869;28;20029;-51
2023/12/24 01:26:57;;;;;;;31.60;29.98;;;;;;;;;;5036770;28;20041;-53
2023/12/24 01:29:22;;;;;;;33.53;31.83;;;;;;;;;;5027316;28;20045;-53
2023/12/24 01:31:47;;;;;;;32.17;30.50;;;;;;;;;;5032180;28;20040;-51
2023/12/24 01:34:13;;;;;;;31.27;29.67;;;;;;;;;;5028445;28;20044;-54
2023/12/24 01:36:39;;;;;;;30.67;29.08;;;;;;;;;;5025996;28;20096;-53
2023/12/24 01:39:05;;;;;;;31.23;29.63;;;;;;;;;;5027806;28;20426;-54
2023/12/24 01:41:31;;;;;;;31.05;29.45;;;;;;;;;;5029641;28;20422;-54
2023/12/24 01:43:56;;;;;;;30.95;29.35;;;;;;;;;;5025446;28;20185;-54
2023/12/24 01:46:22;;;;;;;31.95;30.25;;;;;;;;;;5025940;28;20033;-54
2023/12/24 01:48:50;;;;;;;31.20;29.58;;;;;;;;;;5030916;28;20040;-51
2023/12/24 01:51:17;;;;;;;28.88;27.38;;;;;;;;;;5026356;28;20467;-53
2023/12/24 01:53:43;;;;;;;29.65;28.10;;;;;;;;;;5028406;28;20025;-53
2023/12/24 01:56:09;;;;;;;30.90;29.30;;;;;;;;;;5031149;28;20036;-55
2023/12/24 01:58:34;;;;;;;29.98;28.40;;;;;;;;;;5026995;28;20399;-55
2023/12/24 02:01:01;;;;;;;31.15;29.55;;;;;;;;;;5033142;28;20662;-53
2023/12/24 02:03:26;;;;;;;32.25;30.58;;;;;;;;;;5029673;28;20279;-54
2023/12/24 02:05:53;;;;;;;29.27;27.75;;;;;;;;;;5033013;28;20139;-50
2023/12/24 02:08:21;;;;;;;30.65;29.05;;;;;;;;;;5025410;28;20033;-53
2023/12/24 02:10:50;;;;;;;31.27;29.65;;;;;;;;;;5029335;28;20063;-49
2023/12/24 02:13:16;;;;;;;30.77;29.17;;;;;;;;;;5020472;28;20068;-49
2023/12/24 02:15:45;;;;;;;29.25;27.75;;;;;;;;;;5028686;28;20033;-53
2023/12/24 02:18:13;;;;;;;29.48;27.98;;;;;;;;;;5029414;28;20025;-52
2023/12/24 02:20:39;;;;;;;29.92;28.38;;;;;;;;;;5035609;28;20103;-54
2023/12/24 02:23:04;;;;;;;31.25;29.65;;;;;;;;;;5022378;28;20072;-53
2023/12/24 02:25:31;;;;;;;32.55;30.80;;;;;;;;;;5025263;28;20048;-53
2023/12/24 02:28:14;;;;;;;32.50;30.55;;;;;;;;;;5024152;28;20158;-50
2023/12/24 02:30:43;;;;;;;29.65;28.13;;;;;;;;;;5023637;28;20700;-53
2023/12/24 02:33:11;;;;;;;30.88;29.27;;;;;;;;;;5031225;28;20538;-50
2023/12/24 02:35:37;;;;;;;29.52;28.00;;;;;;;;;;5025639;28;20124;-52
2023/12/24 02:38:03;;;;;;;29.52;28.00;;;;;;;;;;5030913;28;20048;-51
2023/12/24 02:40:28;;;;;;;30.42;28.83;;;;;;;;;;5029493;28;20041;-53
2023/12/24 02:42:53;;;;;;;29.92;28.38;;;;;;;;;;5031268;28;20029;-51
2023/12/24 02:45:19;;;;;;;31.05;29.45;;;;;;;;;;5028737;28;20110;-53
2023/12/24 02:47:44;;;;;;;30.08;28.50;;;;;;;;;;5029706;28;20557;-50
2023/12/24 02:50:09;;;;;;;30.08;28.50;;;;;;;;;;5031712;28;20065;-51
2023/12/24 02:52:35;;;;;;;29.58;28.05;;;;;;;;;;5027457;28;20060;-53
2023/12/24 02:55:00;;;;;;;31.23;29.63;;;;;;;;;;5031801;28;20128;-49
2023/12/24 02:57:26;;;;;;;28.65;27.15;;;;;;;;;;5033275;28;20530;-51
2023/12/24 02:59:52;;;;;;;30.05;28.50;;;;;;;;;;5029212;28;20545;-53
2023/12/24 03:02:17;;;;;;;28.60;27.10;;;;;;;;;;5028151;28;20043;-49
2023/12/24 03:04:42;;;;;;;29.98;28.42;;;;;;;;;;5026056;28;20340;-50
2023/12/24 03:07:08;;;;;;;31.08;29.42;;;;;;;;;;5026061;28;20096;-51
2023/12/24 03:09:33;;;;;;;29.70;28.17;;;;;;;;;;5024766;28;20397;-53
2023/12/24 03:11:58;;;;;;;29.80;28.23;;;;;;;;;;5032104;28;20032;-52
2023/12/24 03:14:24;;;;;;;30.80;29.20;;;;;;;;;;5033041;28;20033;-50
2023/12/24 03:16:49;;;;;;;29.67;28.15;;;;;;;;;;5028310;28;20051;-54
2023/12/24 03:19:14;;;;;;;31.65;30.00;;;;;;;;;;5028891;28;20021;-53
2023/12/24 03:21:43;;;;;;;33.40;31.67;;;;;;;;;;5025661;28;20879;-53
2023/12/24 03:24:09;;;;;;;31.77;30.15;;;;;;;;;;5022878;28;20125;-55
2023/12/24 03:26:34;;;;;;;32.67;30.98;;;;;;;;;;5024628;28;20133;-55
2023/12/24 03:29:02;;;;;;;32.63;30.92;;;;;;;;;;5031087;28;20096;-52
2023/12/24 03:31:28;;;;;;;32.67;30.98;;;;;;;;;;5031486;28;20025;-53
2023/12/24 03:33:54;;;;;;;31.65;30.02;;;;;;;;;;5030841;28;20394;-54
2023/12/24 03:36:19;;;;;;;31.70;30.10;;;;;;;;;;5030852;28;20036;-56
2023/12/24 03:38:45;;;;;;;31.50;29.80;;;;;;;;;;5032333;28;20044;-52
2023/12/24 03:41:11;;;;;;;31.60;29.90;;;;;;;;;;5029128;28;20048;-54
2023/12/24 03:43:36;;;;;;;30.77;29.17;;;;;;;;;;5028603;28;20072;-53
2023/12/24 03:46:02;;;;;;;30.85;29.25;;;;;;;;;;5033913;28;20041;-49
2023/12/24 03:48:28;;;;;;;33.22;31.52;;;;;;;;;;5027871;28;20025;-52
2023/12/24 03:50:54;;;;;;;31.35;29.75;;;;;;;;;;5031588;28;20025;-49
2023/12/24 03:53:19;;;;;;;31.42;29.83;;;;;;;;;;5032268;28;20033;-54
2023/12/24 03:55:44;;;;;;;32.35;30.65;;;;;;;;;;5029286;28;20040;-48
2023/12/24 03:58:10;;;;;;;30.98;29.38;;;;;;;;;;5031616;28;20048;-52
2023/12/24 04:00:35;;;;;;;30.63;29.02;;;;;;;;;;5031170;28;20368;-50
2023/12/24 04:03:00;;;;;;;31.38;29.77;;;;;;;;;;5033809;28;20516;-50
2023/12/24 04:05:26;;;;;;;30.92;29.33;;;;;;;;;;5033810;28;20634;-52
2023/12/24 04:07:51;;;;;;;30.98;29.38;;;;;;;;;;5029447;28;20541;-49
2023/12/24 04:10:17;;;;;;;30.40;28.80;;;;;;;;;;5032569;28;20041;-52
2023/12/24 04:12:42;;;;;;;31.38;29.77;;;;;;;;;;5029975;28;20422;-51
2023/12/24 04:15:08;;;;;;;30.10;28.13;;;;;;;;;;5031180;28;20091;-55
2023/12/24 04:17:37;;;;;;;30.75;29.15;;;;;;;;;;5033141;28;20036;-50
2023/12/24 04:20:03;;;;;;;30.40;28.80;;;;;;;;;;5030671;28;20029;-49
2023/12/24 04:22:29;;;;;;;32.17;30.50;;;;;;;;;;5033579;28;20098;-50
2023/12/24 04:24:54;;;;;;;31.33;29.73;;;;;;;;;;5030585;28;20037;-54
2023/12/24 04:27:20;;;;;;;30.40;28.80;;;;;;;;;;5033169;28;20044;-55
2023/12/24 04:29:45;;;;;;;30.63;29.02;;;;;;;;;;5027252;28;20522;-51
2023/12/24 04:32:12;;;;;;;32.38;30.67;;;;;;;;;;5032751;28;20037;-51
2023/12/24 04:34:38;;;;;;;30.92;29.33;;;;;;;;;;5030177;28;20049;-56
2023/12/24 04:37:03;;;;;;;30.77;29.17;;;;;;;;;;5031304;28;20454;-54
2023/12/24 04:39:28;;;;;;;32.15;30.45;;;;;;;;;;5029133;28;20045;-53
2023/12/24 04:41:54;;;;;;;29.98;28.38;;;;;;;;;;5034103;28;20052;-53
2023/12/24 04:44:19;;;;;;;31.00;29.35;;;;;;;;;;5030671;28;20116;-52
2023/12/24 04:46:45;;;;;;;30.65;29.05;;;;;;;;;;5029464;28;20026;-50
2023/12/24 04:49:11;;;;;;;32.60;30.77;;;;;;;;;;5030697;28;20414;-53
2023/12/24 04:51:36;;;;;;;31.27;29.67;;;;;;;;;;5023043;28;20041;-50
2023/12/24 04:54:02;;;;;;;32.55;30.85;;;;;;;;;;5030398;28;20030;-47
2023/12/24 04:56:28;;;;;;;30.40;28.80;;;;;;;;;;5024588;28;20029;-49
2023/12/24 04:58:53;;;;;;;29.83;28.27;;;;;;;;;;5030102;28;20467;-51
2023/12/24 05:01:19;;;;;;;31.98;30.33;;;;;;;;;;5028594;28;20033;-52
2023/12/24 05:03:44;;;;;;;29.98;28.40;;;;;;;;;;5027670;28;20030;-53
2023/12/24 05:06:10;;;;;;;31.30;29.70;;;;;;;;;;5030459;28;20065;-55
2023/12/24 05:08:35;;;;;;;32.55;30.85;;;;;;;;;;5025831;28;20037;-53
2023/12/24 05:11:07;;;;;;;31.95;30.25;;;;;;;;;;5029208;28;20086;-50
2023/12/24 05:13:36;;;;;;;32.10;30.40;;;;;;;;;;5027813;28;20033;-51
2023/12/24 05:16:05;;;;;;;33.25;31.55;;;;;;;;;;5025650;28;20033;-52
2023/12/24 05:18:32;;;;;;;33.28;31.58;;;;;;;;;;5027750;28;20069;-52
2023/12/24 05:20:58;;;;;;;33.00;31.30;;;;;;;;;;5032624;28;20441;-51
2023/12/24 05:23:24;;;;;;;33.10;31.40;;;;;;;;;;5030571;28;20064;-53
2023/12/24 05:25:49;;;;;;;32.65;30.95;;;;;;;;;;5025758;28;20076;-53
2023/12/24 05:28:17;;;;;;;34.35;32.55;;;;;;;;;;5026966;28;20061;-49
2023/12/24 05:30:42;;;;;;;33.83;32.13;;;;;;;;;;5025178;28;20100;-52
2023/12/24 05:33:08;;;;;;;37.75;35.83;;;;;;;;;;5029252;28;20029;-53
2023/12/24 05:35:33;;;;;;;35.63;33.83;;;;;;;;;;5029870;28;20025;-51
2023/12/24 05:37:58;;;;;;;36.42;34.55;;;;;;;;;;5028471;28;20075;-50
2023/12/24 05:40:23;;;;;;;37.00;35.10;;;;;;;;;;5028108;28;20127;-50
2023/12/24 05:42:49;;;;;;;34.58;32.78;;;;;;;;;;5029080;28;20044;-54
2023/12/24 05:45:14;;;;;;;34.70;32.90;;;;;;;;;;5030861;28;20033;-53
2023/12/24 05:47:39;;;;;;;35.90;34.05;;;;;;;;;;5029931;28;20041;-51
2023/12/24 05:50:07;;;;;;;35.72;33.90;;;;;;;;;;5027785;28;20040;-53
2023/12/24 05:52:32;;;;;;;38.75;36.75;;;;;;;;;;5031901;28;20032;-53
2023/12/24 05:54:57;;;;;;;38.47;36.50;;;;;;;;;;5028658;28;20384;-52
2023/12/24 05:57:23;;;;;;;37.40;35.47;;;;;;;;;;5027041;28;20052;-53
2023/12/24 05:59:48;;;;;;;38.03;36.05;;;;;;;;;;5025919;28;20038;-50
2023/12/24 06:02:14;;;;;;;37.60;35.67;;;;;;;;;;5033953;28;20037;-52
2023/12/24 06:04:39;;;;;;;40.00;37.95;;;;;;;;;;5031895;28;20043;-52
2023/12/24 06:07:05;;;;;;;39.17;37.17;;;;;;;;;;5031126;28;20182;-53
2023/12/24 06:09:31;;;;;;;40.30;38.25;;;;;;;;;;5029468;28;20442;-55
2023/12/24 06:11:57;;;;;;;38.47;36.50;;;;;;;;;;5025985;28;20381;-52
2023/12/24 06:14:22;;;;;;;38.95;36.95;;;;;;;;;;5032417;28;20025;-53
2023/12/24 06:16:47;;;;;;;41.75;39.63;;;;;;;;;;5023374;28;20034;-53
2023/12/24 06:19:13;;;;;;;42.15;40.00;;;;;;;;;;5026560;28;20040;-54
2023/12/24 06:21:38;;;;;;;41.63;39.50;;;;;;;;;;5024305;28;20045;-56
2023/12/24 06:24:04;;;;;;;47.88;45.38;;;;;;;;;;5027263;28;20033;-53
2023/12/24 06:26:29;;;;;;;47.17;44.80;;;;;;;;;;5026122;28;20110;-56
2023/12/24 06:28:55;;;;;;;45.35;43.05;;;;;;;;;;5028990;28;20364;-55
2023/12/24 06:31:22;;;;;;;47.70;45.30;;;;;;;;;;5028850;28;20105;-55
2023/12/24 06:33:47;;;;;;;42.08;39.95;;;;;;;;;;5030235;28;20041;-54
2023/12/24 06:36:13;;;;;;;46.08;43.78;;;;;;;;;;5027998;28;20451;-56
2023/12/24 06:38:38;;;;;;;44.53;42.28;;;;;;;;;;5035656;28;20110;-57
2023/12/24 06:41:04;;;;;;;40.25;38.17;;;;;;;;;;5031125;28;20067;-52
2023/12/24 06:43:29;;;;;;;41.03;38.92;;;;;;;;;;5028918;28;20148;-53
2023/12/24 06:45:54;;;;;;;37.92;36.00;;;;;;;;;;5029114;28;20132;-52
2023/12/24 06:48:20;;;;;;;42.05;39.88;;;;;;;;;;5026458;28;20040;-53
2023/12/24 06:50:45;;;;;;;37.50;35.55;;;;;;;;;;5028279;28;20411;-52
2023/12/24 06:53:10;;;;;;;37.25;35.35;;;;;;;;;;5030007;28;20101;-51
2023/12/24 06:55:36;;;;;;;36.85;34.95;;;;;;;;;;5030764;28;20039;-53
2023/12/24 06:58:06;;;;;;;39.83;37.83;;;;;;;;;;5027432;28;20030;-56
2023/12/24 07:00:31;;;;;;;37.45;35.55;;;;;;;;;;5025160;28;20033;-55
2023/12/24 07:02:57;;;;;;;37.58;35.63;;;;;;;;;;5026557;28;20075;-54
2023/12/24 07:05:22;;;;;;;36.47;34.60;;;;;;;;;;5027027;28;20160;-53
2023/12/24 07:07:47;;;;;;;35.72;33.90;;;;;;;;;;5029547;28;20172;-56
2023/12/24 07:10:13;;;;;;;37.05;35.08;;;;;;;;;;5028164;28;20037;-52
2023/12/24 07:12:38;;;;;;;36.88;34.95;;;;;;;;;;5021481;28;22278;-52
2023/12/24 07:15:05;;;;;;;36.15;34.30;;;;;;;;;;5028069;28;20044;-53
2023/12/24 07:17:31;;;;;;;36.03;34.17;;;;;;;;;;5026919;28;20033;-51
2023/12/24 07:19:57;;;;;;;34.78;32.97;;;;;;;;;;5023617;28;20052;-51
2023/12/24 07:22:23;;;;;;;33.75;32.00;;;;;;;;;;5026171;28;20125;-54
2023/12/24 07:24:48;;;;;;;35.22;33.40;;;;;;;;;;5028763;28;20033;-53
2023/12/24 07:27:14;;;;;;;35.08;33.25;;;;;;;;;;5025459;28;20033;-52
2023/12/24 07:29:42;;;;;;;34.35;32.58;;;;;;;;;;5025522;28;20478;-51
2023/12/24 07:32:08;;;;;;;35.85;34.00;;;;;;;;;;5025437;28;20036;-50
2023/12/24 07:34:33;;;;;;;35.35;33.53;;;;;;;;;;5022249;28;20037;-51
2023/12/24 07:36:59;;;;;;;37.22;35.33;;;;;;;;;;5022441;28;20022;-47
2023/12/24 07:39:25;;;;;;;37.35;35.45;;;;;;;;;;5024479;28;20037;-49
2023/12/24 07:41:50;;;;;;;39.42;37.42;;;;;;;;;;5027148;28;20042;-51
2023/12/24 07:44:16;;;;;;;36.42;34.58;;;;;;;;;;5029097;28;20438;-56
2023/12/24 07:46:41;;;;;;;37.03;35.13;;;;;;;;;;5022849;28;20396;-54
2023/12/24 07:49:07;;;;;;;37.03;35.13;;;;;;;;;;5028339;28;20140;-51
2023/12/24 07:51:33;;;;;;;37.00;35.10;;;;;;;;;;5027313;28;20029;-55
2023/12/24 07:53:59;;;;;;;38.67;36.70;;;;;;;;;;5027129;28;20041;-48
2023/12/24 07:56:24;;;;;;;35.72;33.90;;;;;;;;;;5028748;28;20033;-53
2023/12/24 07:58:50;;;;;;;35.88;34.03;;;;;;;;;;5024104;28;20063;-53
2023/12/24 08:01:15;;;;;;;41.28;39.17;;;;;;;;;;5030186;28;20045;-54
2023/12/24 08:03:40;;;;;;;39.05;37.05;;;;;;;;;;5029734;28;20038;-54
2023/12/24 08:06:06;;;;;;;37.45;35.55;;;;;;;;;;5027740;28;20049;-52
2023/12/24 08:08:32;;;;;;;37.75;35.80;;;;;;;;;;5031811;28;20025;-49
2023/12/24 08:10:57;;;;;;;38.00;36.00;;;;;;;;;;5026063;28;20345;-50
2023/12/24 08:13:22;;;;;;;35.63;33.80;;;;;;;;;;5027457;28;20135;-49
2023/12/24 08:15:48;;;;;;;36.70;34.83;;;;;;;;;;5028291;28;20044;-55
2023/12/24 08:18:13;;;;;;;38.22;36.28;;;;;;;;;;5026108;28;20429;-53
2023/12/24 08:20:39;;;;;;;38.10;36.17;;;;;;;;;;5030077;28;20051;-53
2023/12/24 08:23:07;;;;;;;37.63;35.70;;;;;;;;;;5035023;28;20033;-50
2023/12/24 08:25:32;;;;;;;37.45;35.53;;;;;;;;;;5042789;28;20072;-47
2023/12/24 08:27:59;;;;;;;39.00;37.00;;;;;;;;;;5036283;28;20048;-54
2023/12/24 08:30:25;;;;;;;37.35;35.33;;;;;;;;;;5030642;28;20064;-49
2023/12/24 08:32:50;;;;;;;39.92;37.75;;;;;;;;;;5032077;28;20099;-47
2023/12/24 08:35:15;;;;;;;39.47;37.45;;;;;;;;;;5031018;28;20886;-54
2023/12/24 08:37:41;;;;;;;38.38;36.42;;;;;;;;;;5029432;28;20033;-55
2023/12/24 08:40:07;;;;;;;36.55;34.67;;;;;;;;;;5027575;28;20040;-55
2023/12/24 08:42:32;;;;;;;38.95;36.97;;;;;;;;;;5026087;28;20037;-56
2023/12/24 08:44:57;;;;;;;39.80;37.78;;;;;;;;;;5028598;28;20037;-56
2023/12/24 08:47:23;;;;;;;38.38;36.40;;;;;;;;;;5030339;28;20037;-54
2023/12/24 08:49:48;;;;;;;36.65;34.78;;;;;;;;;;5015624;28;20040;-55
2023/12/24 08:52:13;;;;;;;39.20;37.20;;;;;;;;;;5031926;28;20062;-56
2023/12/24 08:54:39;;;;;;;37.83;35.90;;;;;;;;;;5029209;28;20123;-53
2023/12/24 08:57:07;;;;;;;40.58;38.50;;;;;;;;;;5031882;28;20037;-55
2023/12/24 08:59:32;;;;;;;40.42;38.22;;;;;;;;;;5034823;28;20083;-54
2023/12/24 09:01:57;;;;;;;37.75;35.83;;;;;;;;;;5029833;28;20064;-55
2023/12/24 09:04:23;;;;;;;35.40;33.58;;;;;;;;;;5032391;28;20123;-54
2023/12/24 09:06:48;;;;;;;36.15;34.30;;;;;;;;;;5031089;28;20029;-56
2023/12/24 09:09:13;;;;;;;33.45;31.75;;;;;;;;;;5034559;28;20048;-55
2023/12/24 09:11:39;;;;;;;34.53;32.75;;;;;;;;;;5024675;28;20812;-53
2023/12/24 09:14:04;;;;;;;34.22;32.42;;;;;;;;;;5034572;28;20473;-55
2023/12/24 09:16:29;;;;;;;32.72;31.02;;;;;;;;;;5030427;28;20036;-56
2023/12/24 09:18:55;;;;;;;36.45;34.58;;;;;;;;;;5031530;28;20040;-56
2023/12/24 09:21:20;;;;;;;33.72;32.00;;;;;;;;;;5032281;28;20620;-55
2023/12/24 09:23:46;;;;;;;34.22;32.45;;;;;;;;;;5032144;28;20033;-53
2023/12/24 09:26:11;;;;;;;34.80;33.00;;;;;;;;;;5026231;28;20029;-56
2023/12/24 09:28:36;;;;;;;34.47;32.67;;;;;;;;;;5025982;28;20037;-52
2023/12/24 09:31:02;;;;;;;34.28;32.40;;;;;;;;;;5029822;28;20048;-54
2023/12/24 09:33:27;;;;;;;33.45;31.73;;;;;;;;;;5035075;28;20033;-54
2023/12/24 09:35:52;;;;;;;33.65;31.95;;;;;;;;;;5028823;28;20038;-53
2023/12/24 09:38:18;;;;;;;36.45;34.58;;;;;;;;;;5030168;28;20029;-56
2023/12/24 09:40:43;;;;;;;36.35;34.50;;;;;;;;;;5031547;28;20519;-54
2023/12/24 09:43:09;;;;;;;34.47;32.70;;;;;;;;;;5030988;28;20114;-55
2023/12/24 09:45:34;;;;;;;35.05;33.25;;;;;;;;;;5036031;28;20079;-51
2023/12/24 09:48:00;;;;;;;33.20;31.48;;;;;;;;;;5032196;28;20487;-52
2023/12/24 09:50:27;;;;;;;34.10;32.35;;;;;;;;;;5033163;28;20056;-50
2023/12/24 09:52:53;;;;;;;37.72;35.80;;;;;;;;;;5030812;28;20021;-54
2023/12/24 09:55:18;;;;;;;36.53;34.63;;;;;;;;;;5034017;28;20116;-54
2023/12/24 09:57:44;;;;;;;35.70;33.88;;;;;;;;;;5030808;28;20116;-54
2023/12/24 10:00:10;;;;;;;35.15;33.35;;;;;;;;;;5036091;28;20040;-48
2023/12/24 10:02:36;;;;;;;38.35;36.38;;;;;;;;;;5031741;28;20514;-53
2023/12/24 10:05:03;;;;;;;37.35;35.45;;;;;;;;;;5030025;28;20159;-55
2023/12/24 10:07:40;;;;;;;38.78;36.78;;;;;;;;;;5030514;28;20459;-52
2023/12/24 10:10:08;;;;;;;40.13;38.08;;;;;;;;;;5032691;28;20083;-53
2023/12/24 10:12:33;;;;;;;37.90;35.97;;;;;;;;;;5032616;28;20036;-50
2023/12/24 10:15:00;;;;;;;38.30;36.35;;;;;;;;;;5028784;28;20100;-54
2023/12/24 10:17:32;;;;;;;40.67;38.60;;;;;;;;;;5028117;28;20029;-55
2023/12/24 10:20:00;;;;;;;37.58;35.65;;;;;;;;;;5024610;28;20054;-53
2023/12/24 10:22:26;;;;;;;39.15;37.15;;;;;;;;;;5029225;28;20650;-54
2023/12/24 10:25:14;;;;;;;39.30;37.30;;;;;;;;;;5026428;28;20129;-55
2023/12/24 10:27:40;;;;;;;39.95;37.95;;;;;;;;;;5025840;28;20435;-54
2023/12/24 10:30:13;;;;;;;41.05;38.95;;;;;;;;;;5033337;28;20029;-53
2023/12/24 10:32:44;;;;;;;43.15;40.95;;;;;;;;;;5028102;28;20151;-57
2023/12/24 10:35:09;;;;;;;39.65;37.65;;;;;;;;;;5029506;28;20482;-57
2023/12/24 10:37:35;;;;;;;39.95;37.95;;;;;;;;;;5027149;28;20037;-54
2023/12/24 10:40:10;;;;;;;41.83;39.72;;;;;;;;;;5031875;28;20125;-55
2023/12/24 10:42:40;;;;;;;38.22;36.28;;;;;;;;;;5029065;28;20064;-53
2023/12/24 10:45:08;;;;;;;39.88;37.47;;;;;;;;;;5030830;28;20482;-53
2023/12/24 10:47:36;;;;;;;38.22;36.25;;;;;;;;;;5027357;28;20458;-54
2023/12/24 10:50:03;;;;;;;39.65;37.20;;;;;;;;;;5026434;28;20095;-53
2023/12/24 10:52:29;;;;;;;35.63;33.83;;;;;;;;;;5027180;28;20129;-55
2023/12/24 10:54:56;;;;;;;37.38;35.42;;;;;;;;;;5023822;28;20114;-54
2023/12/24 10:57:34;;;;;;;36.20;34.35;;;;;;;;;;5029723;28;20025;-52
2023/12/24 11:00:12;;;;;;;35.15;33.35;;;;;;;;;;5022893;28;20419;-54
2023/12/24 11:02:42;;;;;;;34.65;32.85;;;;;;;;;;5027219;28;20045;-55
2023/12/24 11:05:07;;;;;;;36.25;34.40;;;;;;;;;;5026025;28;20036;-55
2023/12/24 11:07:48;;;;;;;38.70;36.72;;;;;;;;;;5029763;28;20112;-54
2023/12/24 11:10:36;;;;;;;36.63;34.75;;;;;;;;;;5029245;28;20060;-53
2023/12/24 11:13:02;;;;;;;38.05;36.10;;;;;;;;;;5028005;28;20048;-54
2023/12/24 11:15:41;;;;;;;36.90;35.00;;;;;;;;;;5027064;28;20375;-50
2023/12/24 11:18:06;;;;;;;37.72;35.83;;;;;;;;;;5027508;28;20040;-54
2023/12/24 11:20:39;;;;;;;38.17;36.25;;;;;;;;;;5026682;28;20030;-54
2023/12/24 11:23:05;;;;;;;38.33;36.35;;;;;;;;;;5024272;28;20107;-52
2023/12/24 11:25:47;;;;;;;37.33;35.42;;;;;;;;;;5026934;28;20475;-51
2023/12/24 11:28:22;;;;;;;34.97;33.17;;;;;;;;;;5025598;28;20033;-54
2023/12/24 11:31:08;;;;;;;33.97;32.28;;;;;;;;;;5024937;28;20076;-52
2023/12/24 11:33:33;;;;;;;34.28;32.50;;;;;;;;;;5024802;28;20042;-55
2023/12/24 11:36:08;;;;;;;36.90;35.00;;;;;;;;;;5029996;28;20042;-55
2023/12/24 11:38:33;;;;;;;34.20;32.42;;;;;;;;;;5025308;28;20030;-54
2023/12/24 11:41:08;;;;;;;35.17;33.38;;;;;;;;;;5023418;28;20040;-55
2023/12/24 11:43:39;;;;;;;34.05;32.30;;;;;;;;;;5026991;28;20066;-54
2023/12/24 11:46:05;;;;;;;34.63;32.83;;;;;;;;;;5030811;28;20057;-48
2023/12/24 11:48:33;;;;;;;34.45;32.65;;;;;;;;;;5030692;28;20492;-51
2023/12/24 11:51:08;;;;;;;32.80;31.10;;;;;;;;;;5032575;28;20037;-48
2023/12/24 11:53:35;;;;;;;34.20;32.45;;;;;;;;;;5043518;28;20041;-48
2023/12/24 11:56:10;;;;;;;33.70;32.00;;;;;;;;;;5036677;28;20055;-50
2023/12/24 11:58:55;;;;;;;34.83;33.03;;;;;;;;;;5031148;28;20482;-53
2023/12/24 12:01:25;;;;;;;33.80;32.10;;;;;;;;;;5034192;28;20431;-48
2023/12/24 12:03:58;;;;;;;33.00;31.30;;;;;;;;;;5032167;28;20105;-48
2023/12/24 12:06:28;;;;;;;34.38;32.58;;;;;;;;;;5025537;28;20043;-48
2023/12/24 12:08:54;;;;;;;32.53;30.83;;;;;;;;;;5027364;28;20056;-52
2023/12/24 12:11:19;;;;;;;33.80;32.05;;;;;;;;;;5033770;28;20569;-49
2023/12/24 12:13:45;;;;;;;33.58;31.88;;;;;;;;;;5032782;28;20049;-52
2023/12/24 12:16:10;;;;;;;34.72;32.92;;;;;;;;;;5027980;28;20029;-51
2023/12/24 12:18:36;;;;;;;33.30;31.60;;;;;;;;;;5030247;28;20025;-54
2023/12/24 12:21:01;;;;;;;33.90;32.03;;;;;;;;;;5033399;28;20079;-49
2023/12/24 12:23:26;;;;;;;31.17;29.58;;;;;;;;;;5024569;28;20053;-49
2023/12/24 12:25:52;;;;;;;30.90;29.30;;;;;;;;;;5029498;28;20043;-48
2023/12/24 12:28:17;;;;;;;31.38;29.77;;;;;;;;;;5028159;28;20036;-51
2023/12/24 12:30:44;;;;;;;30.42;28.83;;;;;;;;;;5031192;28;20037;-50
2023/12/24 12:33:10;;;;;;;31.38;29.75;;;;;;;;;;5030911;28;20033;-51
2023/12/24 12:35:35;;;;;;;31.40;29.80;;;;;;;;;;5029590;28;20111;-49
2023/12/24 12:38:01;;;;;;;31.08;29.48;;;;;;;;;;5034618;28;20929;-48
2023/12/24 12:40:26;;;;;;;31.00;29.40;;;;;;;;;;5033299;28;20051;-47
2023/12/24 12:42:51;;;;;;;30.60;29.00;;;;;;;;;;5033233;28;21273;-50
2023/12/24 12:45:17;;;;;;;31.17;29.58;;;;;;;;;;5032713;28;20033;-51
2023/12/24 12:47:42;;;;;;;32.55;30.85;;;;;;;;;;5029604;28;20103;-47
2023/12/24 12:50:08;;;;;;;30.55;28.95;;;;;;;;;;5028123;28;20063;-50
2023/12/24 12:52:34;;;;;;;28.88;27.38;;;;;;;;;;5027176;28;20071;-48
2023/12/24 12:55:07;;;;;;;30.20;28.60;;;;;;;;;;5029356;28;20064;-49
2023/12/24 12:57:36;;;;;;;33.10;31.40;;;;;;;;;;5028820;28;20363;-48
2023/12/24 13:00:09;;;;;;;31.13;29.52;;;;;;;;;;5033354;28;20025;-49
2023/12/24 13:02:39;;;;;;;28.90;27.40;;;;;;;;;;5025109;28;20667;-48
2023/12/24 13:05:21;;;;;;;29.08;27.58;;;;;;;;;;5030531;28;20374;-47
2023/12/24 13:07:46;;;;;;;29.67;28.17;;;;;;;;;;5032108;28;20131;-53
2023/12/24 13:10:13;;;;;;;29.50;28.00;;;;;;;;;;5033965;28;20083;-55
2023/12/24 13:12:38;;;;;;;27.77;26.33;;;;;;;;;;5030872;28;20752;-51
2023/12/24 13:15:04;;;;;;;27.70;26.27;;;;;;;;;;5026485;28;20167;-54
2023/12/24 13:17:29;;;;;;;30.80;29.20;;;;;;;;;;5029281;28;20034;-52
2023/12/24 13:19:55;;;;;;;28.13;26.63;;;;;;;;;;5028458;28;20048;-54
2023/12/24 13:22:24;;;;;;;28.75;27.25;;;;;;;;;;5028055;28;20041;-56
2023/12/24 13:24:52;;;;;;;28.08;26.58;;;;;;;;;;5029953;28;20037;-54
2023/12/24 13:27:18;;;;;;;27.98;26.50;;;;;;;;;;5028883;28;20158;-53
2023/12/24 13:29:44;;;;;;;28.92;27.42;;;;;;;;;;5030321;28;20072;-55
2023/12/24 13:32:09;;;;;;;28.58;27.08;;;;;;;;;;5033255;28;20398;-52
2023/12/24 13:34:35;;;;;;;29.77;28.23;;;;;;;;;;5036678;28;20048;-49
2023/12/24 13:37:00;;;;;;;29.48;27.92;;;;;;;;;;5028513;28;20037;-49
2023/12/24 13:39:26;;;;;;;29.42;27.92;;;;;;;;;;5033385;28;20037;-52
2023/12/24 13:41:51;;;;;;;29.67;28.15;;;;;;;;;;5028160;28;20098;-54
2023/12/24 13:44:16;;;;;;;29.95;28.38;;;;;;;;;;5027510;28;20056;-53
2023/12/24 13:46:42;;;;;;;30.60;29.00;;;;;;;;;;5012320;28;20041;-54
2023/12/24 13:49:10;;;;;;;30.15;28.55;;;;;;;;;;5012107;28;20045;-56
2023/12/24 13:51:38;;;;;;;33.08;31.38;;;;;;;;;;5028375;28;20044;-55
2023/12/24 13:54:04;;;;;;;32.88;31.17;;;;;;;;;;5026586;28;20171;-55
2023/12/24 13:56:31;;;;;;;33.35;31.65;;;;;;;;;;5031797;28;20216;-56
2023/12/24 13:58:57;;;;;;;32.35;30.65;;;;;;;;;;5031845;28;20036;-53
2023/12/24 14:01:22;;;;;;;34.03;32.28;;;;;;;;;;5033003;28;20030;-54
2023/12/24 14:03:48;;;;;;;34.97;33.17;;;;;;;;;;5030715;28;20435;-54
2023/12/24 14:06:13;;;;;;;36.67;34.78;;;;;;;;;;5024439;28;20119;-55
2023/12/24 14:08:38;;;;;;;34.13;32.35;;;;;;;;;;5027824;28;20159;-55
2023/12/24 14:11:04;;;;;;;35.15;33.35;;;;;;;;;;5031047;28;20029;-55
2023/12/24 14:13:30;;;;;;;36.78;34.88;;;;;;;;;;5033844;28;20351;-56